createdAt,value
2023-02-01T00:01:30.360Z,23.90
2023-02-01T00:03:58.771Z,15.00
2023-02-01T00:06:27.186Z,21.80
2023-02-01T00:08:56.347Z,10.70
2023-02-01T00:11:25.197Z,25.20
2023-02-01T00:13:54.112Z,36.20
2023-02-01T00:16:25.947Z,39.90
2023-02-01T00:19:02.753Z,26.40
2023-02-01T00:21:32.177Z,25.60
2023-02-01T00:24:00.737Z,22.10
2023-02-01T00:26:37.452Z,17.40
2023-02-01T00:29:10.784Z,7.60
2023-02-01T00:31:39.330Z,20.00
2023-02-01T00:34:09.851Z,18.20
2023-02-01T00:36:38.192Z,19.10
2023-02-01T00:39:06.897Z,16.60
2023-02-01T00:41:35.482Z,17.40
2023-02-01T00:44:04.340Z,14.50
2023-02-01T00:46:32.707Z,17.50
2023-02-01T00:49:01.339Z,18.50
2023-02-01T00:51:31.453Z,17.50
2023-02-01T00:53:59.850Z,29.00
2023-02-01T00:56:28.836Z,23.10
2023-02-01T00:58:57.604Z,16.60
2023-02-01T01:01:28.620Z,16.50
2023-02-01T01:03:59.831Z,14.10
2023-02-01T01:06:33.663Z,13.90
2023-02-01T01:09:05.087Z,12.20
2023-02-01T01:11:36.756Z,3.50
2023-02-01T01:14:07.699Z,17.70
2023-02-01T01:16:37.569Z,19.90
2023-02-01T01:19:06.323Z,27.90
2023-02-01T01:21:34.840Z,22.00
2023-02-01T01:24:03.407Z,10.10
2023-02-01T01:26:31.823Z,6.50
2023-02-01T01:29:00.720Z,6.30
2023-02-01T01:31:29.455Z,6.90
2023-02-01T01:34:00.097Z,22.20
2023-02-01T01:36:29.512Z,26.00
2023-02-01T01:38:58.418Z,20.90
2023-02-01T01:41:32.229Z,30.40
2023-02-01T01:44:46.126Z,28.30
2023-02-01T01:47:16.814Z,26.10
2023-02-01T01:49:45.836Z,17.90
2023-02-01T01:52:15.233Z,24.40
2023-02-01T01:54:49.056Z,23.10
2023-02-01T01:57:30.966Z,12.50
2023-02-01T02:00:09.107Z,13.40
2023-02-01T02:02:54.229Z,14.40
2023-02-01T02:05:23.030Z,6.00
2023-02-01T02:07:54.221Z,15.80
2023-02-01T02:10:42.792Z,12.80
2023-02-01T02:13:11.684Z,13.20
2023-02-01T02:15:46.340Z,5.50
2023-02-01T02:18:26.884Z,10.20
2023-02-01T02:21:10.636Z,21.90
2023-02-01T02:23:57.806Z,16.90
2023-02-01T02:26:57.621Z,18.00
2023-02-01T02:29:40.926Z,28.30
2023-02-01T02:32:30.847Z,19.90
2023-02-01T02:35:10.992Z,27.00
2023-02-01T02:38:04.985Z,22.70
2023-02-01T02:41:03.390Z,17.40
2023-02-01T02:44:07.952Z,12.80
2023-02-01T02:47:10.079Z,8.30
2023-02-01T02:50:10.697Z,18.70
2023-02-01T02:53:09.234Z,17.00
2023-02-01T02:55:41.672Z,14.80
2023-02-01T02:58:31.054Z,17.30
2023-02-01T03:01:18.219Z,11.80
2023-02-01T03:04:07.972Z,12.20
2023-02-01T03:06:38.956Z,20.50
2023-02-01T03:09:15.356Z,20.30
2023-02-01T03:12:05.653Z,17.10
2023-02-01T03:14:37.733Z,16.70
2023-02-01T03:17:13.888Z,11.10
2023-02-01T03:19:50.559Z,20.20
2023-02-01T03:22:24.813Z,12.80
2023-02-01T03:24:59.004Z,19.00
2023-02-01T03:27:33.727Z,8.30
2023-02-01T03:30:27.672Z,8.00
2023-02-01T03:33:00.873Z,18.50
2023-02-01T03:35:52.718Z,16.50
2023-02-01T03:38:27.124Z,39.90
2023-02-01T03:41:01.763Z,202.90
2023-02-01T03:43:35.993Z,94.30
2023-02-01T03:46:09.983Z,41.30
2023-02-01T03:48:40.619Z,29.90
2023-02-01T03:51:11.001Z,18.20
2023-02-01T03:53:43.002Z,17.50
2023-02-01T03:56:12.949Z,18.40
2023-02-01T03:58:41.786Z,13.80
2023-02-01T04:01:10.327Z,15.30
2023-02-01T04:03:39.430Z,8.10
2023-02-01T04:06:08.013Z,7.60
2023-02-01T04:08:37.238Z,21.10
2023-02-01T04:11:05.555Z,18.10
2023-02-01T04:13:33.852Z,21.30
2023-02-01T04:16:02.245Z,16.50
2023-02-01T04:18:30.722Z,20.30
2023-02-01T04:20:59.069Z,16.50
2023-02-01T04:23:27.446Z,17.80
2023-02-01T04:26:00.507Z,18.00
2023-02-01T04:28:30.171Z,9.90
2023-02-01T04:30:58.900Z,5.30
2023-02-01T04:33:27.474Z,10.90
2023-02-01T04:35:55.839Z,15.10
2023-02-01T04:38:24.372Z,9.10
2023-02-01T04:40:52.644Z,10.00
2023-02-01T04:43:20.988Z,17.70
2023-02-01T04:45:50.710Z,8.40
2023-02-01T04:48:20.541Z,17.00
2023-02-01T04:50:50.214Z,23.00
2023-02-01T04:53:19.087Z,24.40
2023-02-01T04:55:51.143Z,20.40
2023-02-01T04:58:19.495Z,10.00
2023-02-01T05:00:47.982Z,9.40
2023-02-01T05:03:17.020Z,11.80
2023-02-01T05:05:45.415Z,21.60
2023-02-01T05:08:13.660Z,22.00
2023-02-01T05:10:41.935Z,18.80
2023-02-01T05:13:30.181Z,22.50
2023-02-01T05:15:58.408Z,22.40
2023-02-01T05:18:26.826Z,11.00
2023-02-01T05:20:55.045Z,15.20
2023-02-01T05:23:23.430Z,33.40
2023-02-01T05:25:52.378Z,25.10
2023-02-01T05:28:20.706Z,14.60
2023-02-01T05:30:49.117Z,27.10
2023-02-01T05:33:17.516Z,20.00
2023-02-01T05:35:45.895Z,21.20
2023-02-01T05:38:14.192Z,18.30
2023-02-01T05:40:42.612Z,27.40
2023-02-01T05:43:10.732Z,28.80
2023-02-01T05:45:39.095Z,28.30
2023-02-01T05:48:07.486Z,19.80
2023-02-01T05:50:41.839Z,35.10
2023-02-01T05:53:14.090Z,13.40
2023-02-01T05:55:43.246Z,30.80
2023-02-01T05:58:13.609Z,31.30
2023-02-01T06:00:42.017Z,28.80
2023-02-01T06:03:10.829Z,24.90
2023-02-01T06:05:40.131Z,24.30
2023-02-01T06:08:08.704Z,20.00
2023-02-01T06:10:36.983Z,19.80
2023-02-01T06:13:05.333Z,23.60
2023-02-01T06:15:38.524Z,28.30
2023-02-01T06:18:06.871Z,23.70
2023-02-01T06:20:35.426Z,18.90
2023-02-01T06:23:03.841Z,25.90
2023-02-01T06:25:32.172Z,11.00
2023-02-01T06:28:06.891Z,24.80
2023-02-01T06:30:35.777Z,17.30
2023-02-01T06:33:04.661Z,12.90
2023-02-01T06:35:32.876Z,6.90
2023-02-01T06:38:04.309Z,25.70
2023-02-01T06:40:32.527Z,19.30
2023-02-01T06:43:00.859Z,17.80
2023-02-01T06:45:29.132Z,12.90
2023-02-01T06:47:57.750Z,11.80
2023-02-01T06:50:26.312Z,12.20
2023-02-01T06:52:56.967Z,15.10
2023-02-01T06:55:25.237Z,30.10
2023-02-01T06:57:57.280Z,22.00
2023-02-01T07:00:26.295Z,24.00
2023-02-01T07:02:55.125Z,22.00
2023-02-01T07:05:23.371Z,23.90
2023-02-01T07:07:51.755Z,21.80
2023-02-01T07:10:23.284Z,29.80
2023-02-01T07:12:51.779Z,25.80
2023-02-01T07:15:19.998Z,31.80
2023-02-01T07:17:50.291Z,15.90
2023-02-01T07:20:18.960Z,38.20
2023-02-01T07:22:47.281Z,35.50
2023-02-01T07:25:15.773Z,38.10
2023-02-01T07:27:44.109Z,35.40
2023-02-01T07:30:12.852Z,24.10
2023-02-01T07:32:42.115Z,12.60
2023-02-01T07:35:10.478Z,22.40
2023-02-01T07:37:39.011Z,33.00
2023-02-01T07:40:08.002Z,36.20
2023-02-01T07:42:36.475Z,25.10
2023-02-01T07:45:20.339Z,24.50
2023-02-01T07:47:54.495Z,16.20
2023-02-01T07:50:23.245Z,12.50
2023-02-01T07:52:51.950Z,8.40
2023-02-01T07:55:21.894Z,21.70
2023-02-01T07:57:50.349Z,26.20
2023-02-01T08:00:38.147Z,14.70
2023-02-01T08:03:06.893Z,25.00
2023-02-01T08:05:38.177Z,25.30
2023-02-01T08:08:07.245Z,16.70
2023-02-01T08:10:36.277Z,16.70
2023-02-01T08:13:12.100Z,29.80
2023-02-01T08:15:40.507Z,21.80
2023-02-01T08:18:09.717Z,19.90
2023-02-01T08:20:39.880Z,19.40
2023-02-01T08:23:10.139Z,32.10
2023-02-01T08:25:39.882Z,21.70
2023-02-01T08:28:08.843Z,25.80
2023-02-01T08:30:41.263Z,28.20
2023-02-01T08:33:10.252Z,19.40
2023-02-01T08:35:43.734Z,15.10
2023-02-01T08:38:12.536Z,21.20
2023-02-01T08:40:42.650Z,20.40
2023-02-01T08:43:10.936Z,32.10
2023-02-01T08:45:41.516Z,22.70
2023-02-01T08:48:09.843Z,22.80
2023-02-01T08:50:40.483Z,16.60
2023-02-01T08:53:17.937Z,22.20
2023-02-01T08:55:48.082Z,34.30
2023-02-01T08:58:18.017Z,31.90
2023-02-01T09:00:46.867Z,25.50
2023-02-01T09:03:16.221Z,30.40
2023-02-01T09:06:31.611Z,28.30
2023-02-01T09:11:27.444Z,28.70
2023-02-01T09:13:55.708Z,31.60
2023-02-01T09:16:24.373Z,19.80
2023-02-01T09:19:01.513Z,19.80
2023-02-01T09:21:36.503Z,25.30
2023-02-01T09:24:05.218Z,32.60
2023-02-01T09:26:33.711Z,28.20
2023-02-01T09:29:02.318Z,27.30
2023-02-01T09:31:31.666Z,23.50
2023-02-01T09:34:00.059Z,17.70
2023-02-01T09:36:31.115Z,22.00
2023-02-01T09:39:01.052Z,18.40
2023-02-01T09:41:39.044Z,23.80
2023-02-01T09:44:45.420Z,11.00
2023-02-01T09:47:17.239Z,24.40
2023-02-01T09:50:04.930Z,18.00
2023-02-01T09:52:44.320Z,24.20
2023-02-01T09:55:37.978Z,23.30
2023-02-01T09:58:21.433Z,24.50
2023-02-01T10:00:58.936Z,23.30
2023-02-01T10:03:37.071Z,21.30
2023-02-01T10:06:31.389Z,15.30
2023-02-01T10:09:07.702Z,18.30
2023-02-01T10:11:56.801Z,12.20
2023-02-01T10:14:25.346Z,15.20
2023-02-01T10:17:15.275Z,17.00
2023-02-01T10:20:28.175Z,11.50
2023-02-01T10:23:33.279Z,6.30
2023-02-01T10:26:32.798Z,8.40
2023-02-01T10:29:05.557Z,7.70
2023-02-01T10:31:49.436Z,7.40
2023-02-01T10:34:18.233Z,7.70
2023-02-01T10:37:04.081Z,5.50
2023-02-01T10:39:34.848Z,6.40
2023-02-01T10:42:06.503Z,7.00
2023-02-01T10:44:52.448Z,6.10
2023-02-01T10:47:24.490Z,8.00
2023-02-01T10:50:17.816Z,9.30
2023-02-01T10:53:02.652Z,10.00
2023-02-01T10:56:05.140Z,7.20
2023-02-01T10:58:45.165Z,6.10
2023-02-01T11:02:29.754Z,7.60
2023-02-01T11:05:17.363Z,6.70
2023-02-01T11:08:03.634Z,8.30
2023-02-01T11:10:39.056Z,6.90
2023-02-01T11:13:33.269Z,8.80
2023-02-01T11:16:09.919Z,6.80
2023-02-01T11:18:39.517Z,6.20
2023-02-01T11:21:11.143Z,6.30
2023-02-01T11:23:53.227Z,12.60
2023-02-01T11:26:25.445Z,7.30
2023-02-01T11:29:00.778Z,7.50
2023-02-01T11:31:40.940Z,5.10
2023-02-01T11:34:17.114Z,7.90
2023-02-01T11:36:48.536Z,9.60
2023-02-01T11:39:36.556Z,9.00
2023-02-01T11:42:20.165Z,8.50
2023-02-01T11:44:50.335Z,6.80
2023-02-01T11:47:42.108Z,10.60
2023-02-01T11:51:05.638Z,6.70
2023-02-01T11:54:03.661Z,6.80
2023-02-01T11:58:37.836Z,7.50
2023-02-01T12:00:21.894Z,5.60
2023-02-01T12:03:51.913Z,8.50
2023-02-01T12:06:50.777Z,6.30
2023-02-01T12:09:33.390Z,9.00
2023-02-01T12:12:21.197Z,8.00
2023-02-01T12:14:54.082Z,8.20
2023-02-01T12:18:05.358Z,11.30
2023-02-01T12:21:13.826Z,10.60
2023-02-01T12:24:18.823Z,7.20
2023-02-01T12:27:28.426Z,5.70
2023-02-01T12:30:39.032Z,9.00
2023-02-01T12:33:16.702Z,10.20
2023-02-01T12:36:38.116Z,5.60
2023-02-01T12:39:39.912Z,10.50
2023-02-01T12:43:30.320Z,6.60
2023-02-01T12:46:51.928Z,7.50
2023-02-01T12:49:39.028Z,6.70
2023-02-01T12:52:15.686Z,8.10
2023-02-01T12:55:25.943Z,8.00
2023-02-01T12:58:15.430Z,7.90
2023-02-01T13:01:46.752Z,9.20
2023-02-01T13:05:09.435Z,7.50
2023-02-01T13:07:49.798Z,9.60
2023-02-01T13:10:32.856Z,8.60
2023-02-01T13:13:24.335Z,4.80
2023-02-01T13:16:28.327Z,7.10
2023-02-01T13:22:10.679Z,8.10
2023-02-01T13:25:17.345Z,4.50
2023-02-01T13:30:25.539Z,7.40
2023-02-01T13:33:53.194Z,7.10
2023-02-01T13:37:05.896Z,9.20
2023-02-01T13:40:01.012Z,12.40
2023-02-01T13:45:24.653Z,12.10
2023-02-01T13:48:01.504Z,13.70
2023-02-01T13:50:38.755Z,18.30
2023-02-01T13:53:24.013Z,18.80
2023-02-01T13:56:14.708Z,7.80
2023-02-01T13:58:46.645Z,9.20
2023-02-01T14:01:25.575Z,10.80
2023-02-01T14:03:56.070Z,22.40
2023-02-01T14:06:34.393Z,17.50
2023-02-01T14:09:22.422Z,23.90
2023-02-01T14:11:57.960Z,12.40
2023-02-01T14:14:26.674Z,8.40
2023-02-01T14:16:55.441Z,11.10
2023-02-01T14:19:27.159Z,9.80
2023-02-01T14:22:03.057Z,12.70
2023-02-01T14:24:37.990Z,7.30
2023-02-01T14:27:12.828Z,8.30
2023-02-01T14:29:44.903Z,12.80
2023-02-01T14:32:18.403Z,11.20
2023-02-01T14:34:49.935Z,7.20
2023-02-01T14:37:18.624Z,8.50
2023-02-01T14:39:47.356Z,12.80
2023-02-01T14:42:29.883Z,15.40
2023-02-01T14:45:18.566Z,90.20
2023-02-01T14:47:52.118Z,14.90
2023-02-01T14:50:23.681Z,37.50
2023-02-01T14:53:03.168Z,14.90
2023-02-01T14:55:48.647Z,31.00
2023-02-01T14:58:39.935Z,21.40
2023-02-01T15:01:26.031Z,19.40
2023-02-01T15:04:28.285Z,43.50
2023-02-01T15:06:59.948Z,21.60
2023-02-01T15:09:39.439Z,33.50
2023-02-01T15:12:16.020Z,33.60
2023-02-01T15:14:52.890Z,25.20
2023-02-01T15:17:42.230Z,37.20
2023-02-01T15:20:17.006Z,61.10
2023-02-01T15:23:02.332Z,35.20
2023-02-01T15:25:36.553Z,23.60
2023-02-01T15:28:07.146Z,37.70
2023-02-01T15:30:36.874Z,48.40
2023-02-01T15:33:27.078Z,52.30
2023-02-01T15:36:16.295Z,73.40
2023-02-01T15:38:46.785Z,57.80
2023-02-01T15:41:30.863Z,47.40
2023-02-01T15:44:00.322Z,47.30
2023-02-01T15:46:33.720Z,44.70
2023-02-01T15:49:02.258Z,29.60
2023-02-01T15:51:33.940Z,36.40
2023-02-01T15:54:11.134Z,31.90
2023-02-01T15:56:42.368Z,53.30
2023-02-01T15:59:19.897Z,36.60
2023-02-01T16:01:49.231Z,36.00
2023-02-01T16:04:26.982Z,32.50
2023-02-01T16:07:05.768Z,19.90
2023-02-01T16:09:51.544Z,29.60
2023-02-01T16:12:48.750Z,47.60
2023-02-01T16:15:17.084Z,25.90
2023-02-01T16:17:46.896Z,38.10
2023-02-01T16:20:15.377Z,41.00
2023-02-01T16:22:43.489Z,35.80
2023-02-01T16:25:12.278Z,38.30
2023-02-01T16:27:54.151Z,41.30
2023-02-01T16:30:24.742Z,32.40
2023-02-01T16:32:58.810Z,39.30
2023-02-01T16:35:32.554Z,38.80
2023-02-01T16:38:00.908Z,39.00
2023-02-01T16:40:29.390Z,55.00
2023-02-01T16:42:57.939Z,31.70
2023-02-01T16:45:26.608Z,34.20
2023-02-01T16:47:58.793Z,43.00
2023-02-01T16:50:27.307Z,57.70
2023-02-01T16:52:55.679Z,52.60
2023-02-01T16:55:24.386Z,70.10
2023-02-01T16:57:53.148Z,86.10
2023-02-01T17:00:25.126Z,51.10
2023-02-01T17:02:54.424Z,49.90
2023-02-01T17:05:23.705Z,48.30
2023-02-01T17:07:52.860Z,48.90
2023-02-01T17:10:33.477Z,37.70
2023-02-01T17:13:03.427Z,29.30
2023-02-01T17:15:35.735Z,30.50
2023-02-01T17:18:04.653Z,51.20
2023-02-01T17:20:33.722Z,55.40
2023-02-01T17:23:02.045Z,70.00
2023-02-01T17:25:32.684Z,114.10
2023-02-01T17:28:01.450Z,61.40
2023-02-01T17:30:30.660Z,91.90
2023-02-01T17:32:59.379Z,107.30
2023-02-01T17:35:31.397Z,69.00
2023-02-01T17:37:59.756Z,73.30
2023-02-01T17:40:30.163Z,79.90
2023-02-01T17:42:58.504Z,101.50
2023-02-01T17:45:47.644Z,84.20
2023-02-01T17:48:16.206Z,64.80
2023-02-01T17:50:45.659Z,75.20
2023-02-01T17:53:14.278Z,76.60
2023-02-01T17:55:45.885Z,34.40
2023-02-01T17:58:15.778Z,47.30
2023-02-01T18:00:46.063Z,45.90
2023-02-01T18:03:29.626Z,29.60
2023-02-01T18:05:59.696Z,41.80
2023-02-01T18:08:29.993Z,52.30
2023-02-01T18:11:00.984Z,53.80
2023-02-01T18:13:31.501Z,45.20
2023-02-01T18:16:00.058Z,43.60
2023-02-01T18:18:30.957Z,39.20
2023-02-01T18:21:00.000Z,31.70
2023-02-01T18:23:28.303Z,29.60
2023-02-01T18:25:56.560Z,28.90
2023-02-01T18:28:25.203Z,29.10
2023-02-01T18:30:55.354Z,24.40
2023-02-01T18:33:24.132Z,19.80
2023-02-01T18:35:52.299Z,14.10
2023-02-01T18:38:20.646Z,26.30
2023-02-01T18:40:52.228Z,28.50
2023-02-01T18:43:21.433Z,21.00
2023-02-01T18:45:53.228Z,23.00
2023-02-01T18:48:22.599Z,19.20
2023-02-01T18:50:52.267Z,12.40
2023-02-01T18:53:24.205Z,21.00
2023-02-01T18:55:54.742Z,19.60
2023-02-01T18:58:26.639Z,19.30
2023-02-01T19:00:56.922Z,15.00
2023-02-01T19:03:27.263Z,19.00
2023-02-01T19:05:57.237Z,15.00
2023-02-01T19:08:27.319Z,16.00
2023-02-01T19:10:55.685Z,15.90
2023-02-01T19:13:27.654Z,15.00
2023-02-01T19:15:57.383Z,13.80
2023-02-01T19:18:25.747Z,12.70
2023-02-01T19:20:55.136Z,12.50
2023-02-01T19:23:23.609Z,9.60
2023-02-01T19:25:52.430Z,8.20
2023-02-01T19:28:20.996Z,12.20
2023-02-01T19:30:49.858Z,8.00
2023-02-01T19:33:18.294Z,5.50
2023-02-01T19:35:59.496Z,13.50
2023-02-01T19:38:27.974Z,11.70
2023-02-01T19:41:00.727Z,23.00
2023-02-01T19:43:32.485Z,16.00
2023-02-01T19:46:03.157Z,11.80
2023-02-01T19:48:31.892Z,12.70
2023-02-01T19:51:00.438Z,12.20
2023-02-01T19:53:29.642Z,8.20
2023-02-01T19:55:58.819Z,10.20
2023-02-01T19:58:27.710Z,15.80
2023-02-01T20:00:56.758Z,12.40
2023-02-01T20:03:26.107Z,14.10
2023-02-01T20:05:56.509Z,9.50
2023-02-01T20:08:26.071Z,13.80
2023-02-01T20:10:54.390Z,12.50
2023-02-01T20:13:22.708Z,9.50
2023-02-01T20:15:59.740Z,17.00
2023-02-01T20:18:28.750Z,10.30
2023-02-01T20:20:58.580Z,15.90
2023-02-01T20:23:27.864Z,19.40
2023-02-01T20:26:03.009Z,12.70
2023-02-01T20:28:32.669Z,12.40
2023-02-01T20:31:01.777Z,10.70
2023-02-01T20:33:31.552Z,16.20
2023-02-01T20:36:00.063Z,13.80
2023-02-01T20:38:28.385Z,13.10
2023-02-01T20:41:05.680Z,11.80
2023-02-01T20:43:34.598Z,14.10
2023-02-01T20:46:03.125Z,11.30
2023-02-01T20:48:31.631Z,6.40
2023-02-01T20:51:00.286Z,12.40
2023-02-01T20:53:28.968Z,11.60
2023-02-01T20:55:58.473Z,9.50
2023-02-01T20:58:27.584Z,9.70
2023-02-01T21:00:56.439Z,12.80
2023-02-01T21:03:25.297Z,14.50
2023-02-01T21:05:57.541Z,9.50
2023-02-01T21:08:28.067Z,13.40
2023-02-01T21:11:00.687Z,13.30
2023-02-01T21:15:59.147Z,23.80
2023-02-01T21:18:27.694Z,19.10
2023-02-01T21:20:56.085Z,18.40
2023-02-01T21:23:24.301Z,14.30
2023-02-01T21:25:52.601Z,16.90
2023-02-01T21:28:20.813Z,13.20
2023-02-01T21:30:49.118Z,15.60
2023-02-01T21:33:17.387Z,12.80
2023-02-01T21:35:45.630Z,12.20
2023-02-01T21:38:13.989Z,6.50
2023-02-01T21:40:42.805Z,11.10
2023-02-01T21:43:11.058Z,13.60
2023-02-01T21:45:41.556Z,19.10
2023-02-01T21:48:11.978Z,15.50
2023-02-01T21:50:40.338Z,9.10
2023-02-01T21:53:08.621Z,7.90
2023-02-01T21:55:36.966Z,7.80
2023-02-01T21:58:12.676Z,9.50
2023-02-01T22:00:45.820Z,8.80
2023-02-01T22:03:14.573Z,11.00
2023-02-01T22:05:43.519Z,9.90
2023-02-01T22:08:12.055Z,6.60
2023-02-01T22:10:42.121Z,9.70
2023-02-01T22:13:10.400Z,7.90
2023-02-01T22:15:38.693Z,9.00
2023-02-01T22:18:07.032Z,12.30
2023-02-01T22:20:36.037Z,11.80
2023-02-01T22:23:04.283Z,11.90
2023-02-01T22:25:32.615Z,15.70
2023-02-01T22:28:31.118Z,11.70
2023-02-01T22:30:49.240Z,14.80
2023-02-01T22:33:17.581Z,13.90
2023-02-01T22:35:49.649Z,11.60
2023-02-01T22:38:18.013Z,10.10
2023-02-01T22:40:46.421Z,9.90
2023-02-01T22:43:14.661Z,11.60
2023-02-01T22:45:43.053Z,5.80
2023-02-01T22:48:11.410Z,5.10
2023-02-01T22:50:39.616Z,7.40
2023-02-01T22:53:07.880Z,9.30
2023-02-01T22:55:36.951Z,8.90
2023-02-01T22:58:07.332Z,9.10
2023-02-01T23:00:35.713Z,9.70
2023-02-01T23:03:03.972Z,10.50
2023-02-01T23:05:32.234Z,9.30
2023-02-01T23:08:00.573Z,5.90
2023-02-01T23:10:28.933Z,11.50
2023-02-01T23:12:57.328Z,8.10
2023-02-01T23:15:25.747Z,10.10
2023-02-01T23:17:54.378Z,7.70
2023-02-01T23:20:22.685Z,4.50
2023-02-01T23:22:51.294Z,8.60
2023-02-01T23:25:19.519Z,11.10
2023-02-01T23:27:48.916Z,9.70
2023-02-01T23:30:17.251Z,9.50
2023-02-01T23:32:45.519Z,7.10
2023-02-01T23:35:13.752Z,9.50
2023-02-01T23:37:42.077Z,10.10
2023-02-01T23:40:11.245Z,10.70
2023-02-01T23:42:39.521Z,8.00
2023-02-01T23:45:08.282Z,9.70
2023-02-01T23:47:36.533Z,9.70
2023-02-01T23:50:05.156Z,8.90
2023-02-01T23:52:33.383Z,10.40
2023-02-01T23:55:01.639Z,6.00
2023-02-01T23:57:29.813Z,7.60
2023-02-01T23:59:58.254Z,7.00
